CheckWX is a tool to help pilots better visualize weather data.  It is not intended as a substitute for an official pre-flight weather briefing.

08:05:12 UTC

KBBG TAF
Branson Airport
Branson, Missouri, USA
KBBG 190520Z 1906/2006 VRB04KT P6SM FEW070 SCT250 FM191600 16010G18KT P6SM BKN070 FM200000 16009KT P6SM BKN060

Mar-19@
06:00 UTC

Mar-19 @ 06:00 UTC

Mar-19@
16:00 UTC

Mar-19 @ 16:00 UTC

KBBG 190520Z 1906/2006 VRB04KT P6SM FEW070 SCT250
Wind
  • Variable at 4 KTS
Cloud Levels
  • Few at 7,000' AGL
  • Scattered at 25,000' AGL

Mar-19@
16:00 UTC

Mar-19 @ 16:00 UTC

Mar-20@
00:00 UTC

Mar-20 @ 00:00 UTC

FM191600 16010G18KT P6SM BKN070

From

From Standard forecast or significant change

Wind
  • 160° at 10 KTS
  • {Gusting to 18 KTS
Cloud Levels
  • Broken at 7,000' AGL

Mar-20@
00:00 UTC

Mar-20 @ 00:00 UTC

Mar-20@
06:00 UTC

Mar-20 @ 06:00 UTC

FM200000 16009KT P6SM BKN060

From

From Standard forecast or significant change

Wind
  • 160° at 9 KTS
Cloud Levels
  • Broken at 6,000' AGL